createdAt,value
2022-12-04T00:00:16.353Z,94
2022-12-04T00:05:16.429Z,94
2022-12-04T00:10:16.274Z,94
2022-12-04T00:15:25.186Z,93
2022-12-04T00:20:16.280Z,93
2022-12-04T00:25:16.319Z,93
2022-12-04T00:30:16.356Z,93
2022-12-04T00:35:16.364Z,93
2022-12-04T00:40:16.320Z,93
2022-12-04T00:45:16.430Z,93
2022-12-04T00:50:16.433Z,93
2022-12-04T00:55:16.360Z,93
2022-12-04T01:00:16.373Z,92
2022-12-04T01:05:16.343Z,91
2022-12-04T01:10:16.372Z,90
2022-12-04T01:15:16.374Z,89
2022-12-04T01:20:16.408Z,88
2022-12-04T01:25:16.404Z,87
2022-12-04T01:30:16.414Z,86
2022-12-04T01:35:16.640Z,83
2022-12-04T01:40:16.527Z,82
2022-12-04T01:45:16.586Z,81
2022-12-04T01:50:16.410Z,79
2022-12-04T01:55:16.348Z,78
2022-12-04T02:00:16.659Z,76
2022-12-04T02:05:16.520Z,76
2022-12-04T02:10:16.462Z,74
2022-12-04T02:15:16.704Z,75
2022-12-04T02:20:16.498Z,74
2022-12-04T02:25:16.839Z,72
2022-12-04T02:30:16.535Z,72
2022-12-04T02:35:16.572Z,73
2022-12-04T02:40:16.637Z,74
2022-12-04T02:45:16.564Z,72
2022-12-04T02:50:16.713Z,71
2022-12-04T02:55:16.547Z,73
2022-12-04T03:00:16.659Z,72
2022-12-04T03:05:16.579Z,70
2022-12-04T03:10:16.842Z,71
2022-12-04T03:15:16.660Z,70
2022-12-04T03:20:16.677Z,71
2022-12-04T03:25:16.727Z,70
2022-12-04T03:30:16.703Z,71
2022-12-04T03:35:16.741Z,71
2022-12-04T03:40:16.758Z,72
2022-12-04T03:45:16.767Z,72
2022-12-04T03:50:16.651Z,72
2022-12-04T03:55:16.657Z,72
2022-12-04T04:00:16.667Z,72
2022-12-04T04:05:16.692Z,73
2022-12-04T04:10:16.796Z,73
2022-12-04T04:15:16.778Z,72
2022-12-04T04:20:16.818Z,73
2022-12-04T04:25:16.742Z,72
2022-12-04T04:30:16.847Z,72
2022-12-04T04:35:16.770Z,72
2022-12-04T04:40:16.802Z,71
2022-12-04T04:45:16.910Z,72
2022-12-04T04:50:16.881Z,71
2022-12-04T04:55:16.867Z,72
2022-12-04T05:00:15.815Z,71
2022-12-04T05:05:15.884Z,71
2022-12-04T05:10:15.981Z,72
2022-12-04T05:15:16.041Z,72
2022-12-04T05:20:15.935Z,72
2022-12-04T05:25:15.963Z,72
2022-12-04T05:30:15.885Z,72
2022-12-04T05:35:16.056Z,72
2022-12-04T05:40:16.016Z,72
2022-12-04T05:45:15.949Z,72
2022-12-04T05:50:16.051Z,73
2022-12-04T05:55:15.902Z,72
2022-12-04T06:00:16.067Z,72
2022-12-04T06:05:15.982Z,71
2022-12-04T06:10:16.041Z,70
2022-12-04T06:15:16.061Z,69
2022-12-04T06:20:16.106Z,68
2022-12-04T06:25:15.983Z,68
2022-12-04T06:30:16.128Z,67
2022-12-04T06:35:16.105Z,66
2022-12-04T06:40:16.117Z,66
2022-12-04T06:45:16.032Z,66
2022-12-04T06:50:16.093Z,67
2022-12-04T06:55:16.121Z,64
2022-12-04T07:00:16.076Z,65
2022-12-04T07:05:16.310Z,63
2022-12-04T07:10:16.163Z,64
2022-12-04T07:15:16.084Z,65
2022-12-04T07:20:16.152Z,65
2022-12-04T07:25:16.216Z,65
2022-12-04T07:30:16.403Z,66
2022-12-04T07:35:16.235Z,66
2022-12-04T07:40:16.369Z,67
2022-12-04T07:45:16.187Z,68
2022-12-04T07:50:16.255Z,67
2022-12-04T07:55:21.608Z,67
2022-12-04T08:00:16.231Z,67
2022-12-04T08:05:16.296Z,68
2022-12-04T08:10:16.215Z,68
2022-12-04T08:15:16.306Z,69
2022-12-04T08:20:16.294Z,70
2022-12-04T08:25:16.213Z,70
2022-12-04T08:30:16.316Z,69
2022-12-04T08:35:16.309Z,69
2022-12-04T08:40:16.311Z,70
2022-12-04T08:45:16.258Z,66
2022-12-04T08:50:16.504Z,65
2022-12-04T08:55:16.371Z,65
2022-12-04T09:00:16.714Z,67
2022-12-04T09:05:17.441Z,65
2022-12-04T09:10:16.312Z,65
2022-12-04T09:15:16.421Z,66
2022-12-04T09:20:16.390Z,64
2022-12-04T09:25:16.548Z,63
2022-12-04T09:30:16.346Z,63
2022-12-04T09:35:16.383Z,65
2022-12-04T09:40:16.470Z,64
2022-12-04T09:45:16.369Z,62
2022-12-04T09:50:16.403Z,62
2022-12-04T09:55:16.382Z,63
2022-12-04T10:00:16.499Z,61
2022-12-04T10:05:16.539Z,64
2022-12-04T10:10:16.537Z,60
2022-12-04T10:15:16.474Z,64
2022-12-04T10:20:16.493Z,63
2022-12-04T10:25:16.535Z,66
2022-12-04T10:30:16.569Z,63
2022-12-04T10:35:16.568Z,63
2022-12-04T10:40:16.599Z,63
2022-12-04T10:45:16.564Z,65
2022-12-04T10:50:16.778Z,64
2022-12-04T10:55:16.827Z,65
2022-12-04T11:00:16.636Z,63
2022-12-04T11:05:16.690Z,65
2022-12-04T11:10:16.584Z,64
2022-12-04T11:15:16.676Z,63
2022-12-04T11:20:16.659Z,64
2022-12-04T11:25:16.763Z,64
2022-12-04T11:30:16.605Z,66
2022-12-04T11:35:16.788Z,66
2022-12-04T11:40:16.718Z,67
2022-12-04T11:45:16.759Z,67
2022-12-04T11:50:16.787Z,66
2022-12-04T11:55:16.597Z,66
2022-12-04T12:00:16.991Z,66
2022-12-04T12:05:16.715Z,66
2022-12-04T12:10:16.741Z,67
2022-12-04T12:15:16.722Z,67
2022-12-04T12:20:16.778Z,67
2022-12-04T12:25:16.788Z,67
2022-12-04T12:30:17.055Z,66
2022-12-04T12:35:16.988Z,67
2022-12-04T12:40:16.849Z,66
2022-12-04T12:45:16.878Z,66
2022-12-04T12:50:16.838Z,68
2022-12-04T12:55:16.751Z,69
2022-12-04T13:00:16.867Z,68
2022-12-04T13:05:16.853Z,65
2022-12-04T13:10:16.856Z,65
2022-12-04T13:15:16.948Z,64
2022-12-04T13:20:16.934Z,64
2022-12-04T13:25:17.209Z,63
2022-12-04T13:30:16.907Z,65
2022-12-04T13:35:16.863Z,64
2022-12-04T13:40:16.961Z,66
2022-12-04T13:45:17.054Z,65
2022-12-04T13:50:16.976Z,64
2022-12-04T13:55:17.001Z,63
2022-12-04T14:00:17.174Z,66
2022-12-04T14:05:17.087Z,62
2022-12-04T14:10:16.954Z,62
2022-12-04T14:15:17.139Z,62
2022-12-04T14:20:17.111Z,63
2022-12-04T14:25:17.188Z,63
2022-12-04T14:30:16.995Z,62
2022-12-04T14:35:17.037Z,61
2022-12-04T14:40:16.989Z,61
2022-12-04T14:45:17.060Z,61
2022-12-04T14:50:17.050Z,61
2022-12-04T14:55:17.031Z,59
2022-12-04T15:00:17.134Z,59
2022-12-04T15:05:17.111Z,59
2022-12-04T15:10:17.303Z,59
2022-12-04T15:15:17.071Z,60
2022-12-04T15:20:17.171Z,58
2022-12-04T15:25:17.201Z,60
2022-12-04T15:30:17.164Z,59
2022-12-04T15:35:17.171Z,59
2022-12-04T15:40:17.264Z,60
2022-12-04T15:45:17.184Z,58
2022-12-04T15:50:17.338Z,57
2022-12-04T15:55:17.110Z,58
2022-12-04T16:00:17.285Z,58
2022-12-04T16:05:17.168Z,56
2022-12-04T16:10:17.242Z,57
2022-12-04T16:15:17.309Z,58
2022-12-04T16:20:17.198Z,59
2022-12-04T16:25:17.265Z,58
2022-12-04T16:30:17.301Z,59
2022-12-04T16:35:17.384Z,57
2022-12-04T16:40:17.259Z,56
2022-12-04T16:45:17.217Z,57
2022-12-04T16:50:17.319Z,54
2022-12-04T16:55:17.416Z,55
2022-12-04T17:00:17.321Z,57
2022-12-04T17:05:17.371Z,53
2022-12-04T17:10:21.988Z,55
2022-12-04T17:15:17.399Z,55
2022-12-04T17:20:17.332Z,52
2022-12-04T17:25:17.485Z,55
2022-12-04T17:30:15.289Z,53
2022-12-04T17:35:15.397Z,53
2022-12-04T17:40:15.472Z,52
2022-12-04T17:45:15.802Z,52
2022-12-04T17:50:16.598Z,56
2022-12-04T17:55:15.385Z,55
2022-12-04T18:00:15.488Z,55
2022-12-04T18:05:15.481Z,52
2022-12-04T18:10:15.476Z,53
2022-12-04T18:15:15.598Z,53
2022-12-04T18:20:15.452Z,55
2022-12-04T18:25:15.605Z,56
2022-12-04T18:30:15.558Z,55
2022-12-04T18:35:15.683Z,54
2022-12-04T18:40:15.532Z,54
2022-12-04T18:45:15.700Z,55
2022-12-04T18:50:15.550Z,54
2022-12-04T18:55:15.504Z,57
2022-12-04T19:00:15.579Z,57
2022-12-04T19:05:15.888Z,58
2022-12-04T19:10:15.817Z,56
2022-12-04T19:15:15.767Z,55
2022-12-04T19:20:15.722Z,56
2022-12-04T19:25:15.703Z,57
2022-12-04T19:30:15.602Z,55
2022-12-04T19:35:15.620Z,55
2022-12-04T19:40:15.660Z,57
2022-12-04T19:45:15.866Z,57
2022-12-04T19:50:15.639Z,56
2022-12-04T19:55:15.615Z,56
2022-12-04T20:00:15.649Z,54
2022-12-04T20:05:15.754Z,55
2022-12-04T20:10:15.809Z,54
2022-12-04T20:15:15.704Z,55
2022-12-04T20:20:15.748Z,55
2022-12-04T20:25:15.852Z,54
2022-12-04T20:30:15.759Z,53
2022-12-04T20:35:15.985Z,55
2022-12-04T20:40:15.833Z,55
2022-12-04T20:45:15.751Z,54
2022-12-04T20:50:15.817Z,55
2022-12-04T20:55:15.975Z,55
2022-12-04T21:00:15.976Z,54
2022-12-04T21:05:15.964Z,55
2022-12-04T21:10:15.918Z,56
2022-12-04T21:15:15.807Z,56
2022-12-04T21:20:15.882Z,55
2022-12-04T21:25:15.939Z,54
2022-12-04T21:30:15.849Z,55
2022-12-04T21:35:16.040Z,54
2022-12-04T21:40:16.097Z,54
2022-12-04T21:45:15.960Z,54
2022-12-04T21:50:15.938Z,56
2022-12-04T21:55:15.901Z,56
2022-12-04T22:00:15.943Z,54
2022-12-04T22:05:16.138Z,56
2022-12-04T22:10:16.068Z,56
2022-12-04T22:15:16.021Z,58
2022-12-04T22:20:15.954Z,57
2022-12-04T22:25:16.037Z,57
2022-12-04T22:30:15.996Z,56
2022-12-04T22:35:16.045Z,55
2022-12-04T22:40:16.122Z,58
2022-12-04T22:45:16.066Z,58
2022-12-04T22:50:16.195Z,60
2022-12-04T22:55:16.077Z,60
2022-12-04T23:00:16.107Z,58
2022-12-04T23:05:16.220Z,58
2022-12-04T23:10:16.174Z,61
2022-12-04T23:15:16.231Z,62
2022-12-04T23:20:16.120Z,63
2022-12-04T23:25:16.290Z,63
2022-12-04T23:30:18.194Z,64
2022-12-04T23:35:16.213Z,64
2022-12-04T23:40:16.102Z,64
2022-12-04T23:45:16.180Z,64
2022-12-04T23:50:16.355Z,64
2022-12-04T23:55:16.147Z,64
